sensor_id;sensor_type;location;lat;lon;timestamp;temperature;humidity
64918;HTU21D;52176;44.858;38.372;2022-10-12T00:01:45;7.22;79.72
64918;HTU21D;52176;44.858;38.372;2022-10-12T00:04:11;7.19;79.74
64918;HTU21D;52176;44.858;38.372;2022-10-12T00:06:37;7.18;79.76
64918;HTU21D;52176;44.858;38.372;2022-10-12T00:09:03;7.16;79.78
64918;HTU21D;52176;44.858;38.372;2022-10-12T00:11:29;7.13;79.80
64918;HTU21D;52176;44.858;38.372;2022-10-12T00:13:56;7.12;79.88
64918;HTU21D;52176;44.858;38.372;2022-10-12T00:16:23;7.10;79.91
64918;HTU21D;52176;44.858;38.372;2022-10-12T00:18:51;7.08;79.91
64918;HTU21D;52176;44.858;38.372;2022-10-12T00:21:18;7.07;79.93
64918;HTU21D;52176;44.858;38.372;2022-10-12T00:23:45;7.05;79.94
64918;HTU21D;52176;44.858;38.372;2022-10-12T00:26:17;7.03;80.01
64918;HTU21D;52176;44.858;38.372;2022-10-12T00:28:43;7.01;80.01
64918;HTU21D;52176;44.858;38.372;2022-10-12T00:31:15;6.99;80.09
64918;HTU21D;52176;44.858;38.372;2022-10-12T00:33:42;6.98;80.04
64918;HTU21D;52176;44.858;38.372;2022-10-12T00:38:42;6.96;80.06
64918;HTU21D;52176;44.858;38.372;2022-10-12T00:41:09;6.96;80.06
64918;HTU21D;52176;44.858;38.372;2022-10-12T00:43:37;6.94;80.14
64918;HTU21D;52176;44.858;38.372;2022-10-12T00:48:53;6.91;80.14
64918;HTU21D;52176;44.858;38.372;2022-10-12T00:51:21;6.90;80.19
64918;HTU21D;52176;44.858;38.372;2022-10-12T00:53:53;6.91;80.22
64918;HTU21D;52176;44.858;38.372;2022-10-12T00:56:23;6.89;80.27
64918;HTU21D;52176;44.858;38.372;2022-10-12T00:58:50;6.88;80.24
64918;HTU21D;52176;44.858;38.372;2022-10-12T01:01:17;6.90;80.26
64918;HTU21D;52176;44.858;38.372;2022-10-12T01:03:44;6.89;80.30
64918;HTU21D;52176;44.858;38.372;2022-10-12T01:06:10;6.88;80.31
64918;HTU21D;52176;44.858;38.372;2022-10-12T01:08:37;6.86;80.30
64918;HTU21D;52176;44.858;38.372;2022-10-12T01:11:03;6.86;80.37
64918;HTU21D;52176;44.858;38.372;2022-10-12T01:13:29;6.85;80.45
64918;HTU21D;52176;44.858;38.372;2022-10-12T01:15:58;6.85;80.50
64918;HTU21D;52176;44.858;38.372;2022-10-12T01:21:18;6.84;80.51
64918;HTU21D;52176;44.858;38.372;2022-10-12T01:31:40;6.81;80.55
64918;HTU21D;52176;44.858;38.372;2022-10-12T01:39:44;6.78;80.53
64918;HTU21D;52176;44.858;38.372;2022-10-12T01:42:16;6.76;80.62
64918;HTU21D;52176;44.858;38.372;2022-10-12T01:44:44;6.76;80.60
64918;HTU21D;52176;44.858;38.372;2022-10-12T01:47:10;6.76;80.65
64918;HTU21D;52176;44.858;38.372;2022-10-12T01:49:37;6.76;80.65
64918;HTU21D;52176;44.858;38.372;2022-10-12T02:00:14;6.72;80.69
64918;HTU21D;52176;44.858;38.372;2022-10-12T02:02:54;6.72;80.75
64918;HTU21D;52176;44.858;38.372;2022-10-12T02:05:38;6.69;80.57
64918;HTU21D;52176;44.858;38.372;2022-10-12T02:11:06;6.61;80.63
64918;HTU21D;52176;44.858;38.372;2022-10-12T02:13:39;6.61;80.75
64918;HTU21D;52176;44.858;38.372;2022-10-12T02:16:12;6.59;80.83
64918;HTU21D;52176;44.858;38.372;2022-10-12T02:18:46;6.59;80.86
64918;HTU21D;52176;44.858;38.372;2022-10-12T02:21:19;6.57;80.90
64918;HTU21D;52176;44.858;38.372;2022-10-12T02:23:46;6.58;80.91
64918;HTU21D;52176;44.858;38.372;2022-10-12T02:26:14;6.58;80.95
64918;HTU21D;52176;44.858;38.372;2022-10-12T02:28:43;6.57;81.00
64918;HTU21D;52176;44.858;38.372;2022-10-12T02:31:11;6.56;80.97
64918;HTU21D;52176;44.858;38.372;2022-10-12T02:34:22;6.57;81.00
64918;HTU21D;52176;44.858;38.372;2022-10-12T02:36:51;6.56;81.01
64918;HTU21D;52176;44.858;38.372;2022-10-12T02:39:25;6.55;81.07
64918;HTU21D;52176;44.858;38.372;2022-10-12T02:41:57;6.54;81.09
64918;HTU21D;52176;44.858;38.372;2022-10-12T02:44:30;6.52;81.12
64918;HTU21D;52176;44.858;38.372;2022-10-12T02:46:58;6.51;81.18
64918;HTU21D;52176;44.858;38.372;2022-10-12T02:49:26;6.49;81.26
64918;HTU21D;52176;44.858;38.372;2022-10-12T02:51:54;6.48;81.23
64918;HTU21D;52176;44.858;38.372;2022-10-12T02:54:21;6.45;81.25
64918;HTU21D;52176;44.858;38.372;2022-10-12T02:56:47;6.44;81.26
64918;HTU21D;52176;44.858;38.372;2022-10-12T02:59:15;6.44;81.30
64918;HTU21D;52176;44.858;38.372;2022-10-12T03:01:42;6.42;81.35
64918;HTU21D;52176;44.858;38.372;2022-10-12T03:04:09;6.41;81.33
64918;HTU21D;52176;44.858;38.372;2022-10-12T03:06:35;6.41;81.37
64918;HTU21D;52176;44.858;38.372;2022-10-12T03:09:01;6.41;81.41
64918;HTU21D;52176;44.858;38.372;2022-10-12T03:11:27;6.41;81.42
64918;HTU21D;52176;44.858;38.372;2022-10-12T03:13:54;6.42;81.45
64918;HTU21D;52176;44.858;38.372;2022-10-12T03:16:20;6.42;81.43
64918;HTU21D;52176;44.858;38.372;2022-10-12T03:18:46;6.42;81.48
64918;HTU21D;52176;44.858;38.372;2022-10-12T03:21:13;6.43;81.52
64918;HTU21D;52176;44.858;38.372;2022-10-12T03:23:39;6.43;81.58
64918;HTU21D;52176;44.858;38.372;2022-10-12T03:26:05;6.43;81.60
64918;HTU21D;52176;44.858;38.372;2022-10-12T03:28:31;6.43;81.61
64918;HTU21D;52176;44.858;38.372;2022-10-12T03:30:58;6.45;81.66
64918;HTU21D;52176;44.858;38.372;2022-10-12T03:33:24;6.46;81.59
64918;HTU21D;52176;44.858;38.372;2022-10-12T03:35:50;6.44;81.68
64918;HTU21D;52176;44.858;38.372;2022-10-12T03:38:16;6.45;81.68
64918;HTU21D;52176;44.858;38.372;2022-10-12T03:40:43;6.46;81.67
64918;HTU21D;52176;44.858;38.372;2022-10-12T03:43:09;6.48;81.66
64918;HTU21D;52176;44.858;38.372;2022-10-12T03:45:35;6.48;81.71
64918;HTU21D;52176;44.858;38.372;2022-10-12T03:48:03;6.48;81.72
64918;HTU21D;52176;44.858;38.372;2022-10-12T03:50:29;6.51;81.77
64918;HTU21D;52176;44.858;38.372;2022-10-12T03:52:55;6.51;81.68
64918;HTU21D;52176;44.858;38.372;2022-10-12T03:55:21;6.53;81.65
64918;HTU21D;52176;44.858;38.372;2022-10-12T03:57:48;6.55;81.64
64918;HTU21D;52176;44.858;38.372;2022-10-12T04:00:15;6.56;81.66
64918;HTU21D;52176;44.858;38.372;2022-10-12T04:02:41;6.56;81.65
64918;HTU21D;52176;44.858;38.372;2022-10-12T04:05:07;6.57;81.69
64918;HTU21D;52176;44.858;38.372;2022-10-12T04:07:33;6.61;81.69
64918;HTU21D;52176;44.858;38.372;2022-10-12T04:09:59;6.65;81.67
64918;HTU21D;52176;44.858;38.372;2022-10-12T04:12:25;6.68;81.70
64918;HTU21D;52176;44.858;38.372;2022-10-12T04:14:51;6.72;81.72
64918;HTU21D;52176;44.858;38.372;2022-10-12T04:17:17;6.79;81.69
64918;HTU21D;52176;44.858;38.372;2022-10-12T04:19:43;6.83;81.63
64918;HTU21D;52176;44.858;38.372;2022-10-12T04:22:10;6.89;81.60
64918;HTU21D;52176;44.858;38.372;2022-10-12T04:24:36;6.96;81.55
64918;HTU21D;52176;44.858;38.372;2022-10-12T04:27:02;7.04;81.52
64918;HTU21D;52176;44.858;38.372;2022-10-12T04:29:28;7.14;81.54
64918;HTU21D;52176;44.858;38.372;2022-10-12T04:31:54;7.24;81.48
64918;HTU21D;52176;44.858;38.372;2022-10-12T04:34:20;7.35;81.34
64918;HTU21D;52176;44.858;38.372;2022-10-12T04:36:46;7.46;81.25
64918;HTU21D;52176;44.858;38.372;2022-10-12T04:39:12;7.58;81.14
64918;HTU21D;52176;44.858;38.372;2022-10-12T04:41:38;7.71;80.99
64918;HTU21D;52176;44.858;38.372;2022-10-12T04:44:05;7.85;80.88
64918;HTU21D;52176;44.858;38.372;2022-10-12T04:46:32;7.97;80.81
64918;HTU21D;52176;44.858;38.372;2022-10-12T04:48:58;8.08;80.74
64918;HTU21D;52176;44.858;38.372;2022-10-12T04:51:24;8.21;80.61
64918;HTU21D;52176;44.858;38.372;2022-10-12T04:53:50;8.33;80.52
64918;HTU21D;52176;44.858;38.372;2022-10-12T04:56:16;8.44;80.43
64918;HTU21D;52176;44.858;38.372;2022-10-12T04:58:43;8.58;80.33
64918;HTU21D;52176;44.858;38.372;2022-10-12T05:01:09;8.70;80.24
64918;HTU21D;52176;44.858;38.372;2022-10-12T05:03:35;8.82;80.17
64918;HTU21D;52176;44.858;38.372;2022-10-12T05:06:01;9.00;80.06
64918;HTU21D;52176;44.858;38.372;2022-10-12T05:08:27;9.24;79.82
64918;HTU21D;52176;44.858;38.372;2022-10-12T05:10:52;9.49;79.52
64918;HTU21D;52176;44.858;38.372;2022-10-12T05:13:20;9.75;79.24
64918;HTU21D;52176;44.858;38.372;2022-10-12T05:15:46;10.00;78.98
64918;HTU21D;52176;44.858;38.372;2022-10-12T05:18:12;10.28;78.74
64918;HTU21D;52176;44.858;38.372;2022-10-12T05:20:38;10.57;78.37
64918;HTU21D;52176;44.858;38.372;2022-10-12T05:23:04;10.89;78.00
64918;HTU21D;52176;44.858;38.372;2022-10-12T05:25:29;11.24;77.55
64918;HTU21D;52176;44.858;38.372;2022-10-12T05:27:55;11.56;77.17
64918;HTU21D;52176;44.858;38.372;2022-10-12T05:30:21;11.89;76.78
64918;HTU21D;52176;44.858;38.372;2022-10-12T05:32:47;12.25;76.36
64918;HTU21D;52176;44.858;38.372;2022-10-12T05:35:13;12.63;75.98
64918;HTU21D;52176;44.858;38.372;2022-10-12T05:37:39;13.02;75.48
64918;HTU21D;52176;44.858;38.372;2022-10-12T05:40:05;13.39;75.05
64918;HTU21D;52176;44.858;38.372;2022-10-12T05:42:31;13.78;74.57
64918;HTU21D;52176;44.858;38.372;2022-10-12T05:44:59;14.20;74.00
64918;HTU21D;52176;44.858;38.372;2022-10-12T05:47:25;14.65;73.44
64918;HTU21D;52176;44.858;38.372;2022-10-12T05:49:51;15.09;72.91
64918;HTU21D;52176;44.858;38.372;2022-10-12T05:52:16;15.54;72.40
64918;HTU21D;52176;44.858;38.372;2022-10-12T05:54:42;15.99;71.75
64918;HTU21D;52176;44.858;38.372;2022-10-12T05:57:08;16.39;71.16
64918;HTU21D;52176;44.858;38.372;2022-10-12T05:59:34;16.76;70.55
64918;HTU21D;52176;44.858;38.372;2022-10-12T06:01:59;17.16;69.99
64918;HTU21D;52176;44.858;38.372;2022-10-12T06:04:25;17.56;69.31
64918;HTU21D;52176;44.858;38.372;2022-10-12T06:06:51;17.95;68.65
64918;HTU21D;52176;44.858;38.372;2022-10-12T06:09:17;18.29;67.98
64918;HTU21D;52176;44.858;38.372;2022-10-12T06:11:43;18.65;67.38
64918;HTU21D;52176;44.858;38.372;2022-10-12T06:14:09;18.95;66.85
64918;HTU21D;52176;44.858;38.372;2022-10-12T06:16:35;19.27;66.17
64918;HTU21D;52176;44.858;38.372;2022-10-12T06:19:00;19.54;65.48
64918;HTU21D;52176;44.858;38.372;2022-10-12T06:21:26;19.80;64.88
64918;HTU21D;52176;44.858;38.372;2022-10-12T06:23:52;20.07;64.27
64918;HTU21D;52176;44.858;38.372;2022-10-12T06:26:18;20.36;63.68
64918;HTU21D;52176;44.858;38.372;2022-10-12T06:28:43;20.64;63.04
64918;HTU21D;52176;44.858;38.372;2022-10-12T06:31:09;20.81;62.36
64918;HTU21D;52176;44.858;38.372;2022-10-12T06:33:35;21.03;61.87
64918;HTU21D;52176;44.858;38.372;2022-10-12T06:36:01;21.30;61.15
64918;HTU21D;52176;44.858;38.372;2022-10-12T06:38:27;21.57;60.47
64918;HTU21D;52176;44.858;38.372;2022-10-12T06:40:53;21.84;59.87
64918;HTU21D;52176;44.858;38.372;2022-10-12T06:43:19;22.09;59.30
64918;HTU21D;52176;44.858;38.372;2022-10-12T06:45:47;22.33;58.54
64918;HTU21D;52176;44.858;38.372;2022-10-12T06:48:13;22.61;57.97
64918;HTU21D;52176;44.858;38.372;2022-10-12T06:50:38;22.82;57.34
64918;HTU21D;52176;44.858;38.372;2022-10-12T06:53:04;23.05;56.65
64918;HTU21D;52176;44.858;38.372;2022-10-12T06:55:30;23.18;56.12
64918;HTU21D;52176;44.858;38.372;2022-10-12T06:57:56;23.36;55.69
64918;HTU21D;52176;44.858;38.372;2022-10-12T07:00:21;23.58;55.29
64918;HTU21D;52176;44.858;38.372;2022-10-12T07:02:48;23.74;54.46
64918;HTU21D;52176;44.858;38.372;2022-10-12T07:05:14;23.87;54.07
64918;HTU21D;52176;44.858;38.372;2022-10-12T07:07:41;24.01;53.56
64918;HTU21D;52176;44.858;38.372;2022-10-12T07:10:07;24.12;53.10
64918;HTU21D;52176;44.858;38.372;2022-10-12T07:12:36;24.39;52.66
64918;HTU21D;52176;44.858;38.372;2022-10-12T07:15:05;24.48;51.48
64918;HTU21D;52176;44.858;38.372;2022-10-12T07:17:31;24.54;51.46
64918;HTU21D;52176;44.858;38.372;2022-10-12T07:19:57;24.79;51.08
64918;HTU21D;52176;44.858;38.372;2022-10-12T07:22:23;24.94;50.08
64918;HTU21D;52176;44.858;38.372;2022-10-12T07:24:49;24.97;49.59
64918;HTU21D;52176;44.858;38.372;2022-10-12T07:27:15;25.08;49.34
64918;HTU21D;52176;44.858;38.372;2022-10-12T07:29:40;25.21;48.83
64918;HTU21D;52176;44.858;38.372;2022-10-12T07:32:06;25.37;48.87
64918;HTU21D;52176;44.858;38.372;2022-10-12T07:34:32;25.42;47.53
64918;HTU21D;52176;44.858;38.372;2022-10-12T07:36:59;25.18;47.85
64918;HTU21D;52176;44.858;38.372;2022-10-12T07:39:24;25.18;47.75
64918;HTU21D;52176;44.858;38.372;2022-10-12T07:41:51;25.30;47.38
64918;HTU21D;52176;44.858;38.372;2022-10-12T07:44:17;25.29;47.34
64918;HTU21D;52176;44.858;38.372;2022-10-12T07:46:43;25.44;47.14
64918;HTU21D;52176;44.858;38.372;2022-10-12T07:49:13;25.12;46.92
64918;HTU21D;52176;44.858;38.372;2022-10-12T07:51:39;24.97;47.28
64918;HTU21D;52176;44.858;38.372;2022-10-12T07:54:04;25.35;46.97
64918;HTU21D;52176;44.858;38.372;2022-10-12T07:56:30;25.65;46.10
64918;HTU21D;52176;44.858;38.372;2022-10-12T07:58:56;25.42;46.33
64918;HTU21D;52176;44.858;38.372;2022-10-12T08:01:23;25.36;45.91
64918;HTU21D;52176;44.858;38.372;2022-10-12T08:03:49;24.97;46.29
64918;HTU21D;52176;44.858;38.372;2022-10-12T08:06:16;25.07;46.41
64918;HTU21D;52176;44.858;38.372;2022-10-12T08:08:42;25.68;45.44
64918;HTU21D;52176;44.858;38.372;2022-10-12T08:11:09;26.36;44.32
64918;HTU21D;52176;44.858;38.372;2022-10-12T08:13:35;27.00;43.40
64918;HTU21D;52176;44.858;38.372;2022-10-12T08:16:02;27.31;42.88
64918;HTU21D;52176;44.858;38.372;2022-10-12T08:18:28;27.50;42.10
64918;HTU21D;52176;44.858;38.372;2022-10-12T08:20:55;27.61;41.66
64918;HTU21D;52176;44.858;38.372;2022-10-12T08:23:21;27.52;41.38
64918;HTU21D;52176;44.858;38.372;2022-10-12T08:25:56;26.95;41.81
64918;HTU21D;52176;44.858;38.372;2022-10-12T08:28:23;26.26;42.75
64918;HTU21D;52176;44.858;38.372;2022-10-12T08:30:49;25.61;43.56
64918;HTU21D;52176;44.858;38.372;2022-10-12T08:33:15;25.09;44.51
64918;HTU21D;52176;44.858;38.372;2022-10-12T08:35:41;25.21;44.74
64918;HTU21D;52176;44.858;38.372;2022-10-12T08:38:07;25.08;44.47
64918;HTU21D;52176;44.858;38.372;2022-10-12T08:40:35;24.82;44.89
64918;HTU21D;52176;44.858;38.372;2022-10-12T08:43:04;25.05;44.27
64918;HTU21D;52176;44.858;38.372;2022-10-12T08:50:56;23.87;46.27
64918;HTU21D;52176;44.858;38.372;2022-10-12T08:53:27;24.48;45.32
64918;HTU21D;52176;44.858;38.372;2022-10-12T08:55:55;24.97;44.18
64918;HTU21D;52176;44.858;38.372;2022-10-12T08:58:28;25.39;43.37
64918;HTU21D;52176;44.858;38.372;2022-10-12T09:03:44;25.57;42.52
64918;HTU21D;52176;44.858;38.372;2022-10-12T09:11:22;25.04;44.06
64918;HTU21D;52176;44.858;38.372;2022-10-12T09:14:14;25.76;43.00
64918;HTU21D;52176;44.858;38.372;2022-10-12T09:16:42;26.46;41.93
64918;HTU21D;52176;44.858;38.372;2022-10-12T09:19:12;26.95;40.94
64918;HTU21D;52176;44.858;38.372;2022-10-12T09:21:40;27.35;40.14
64918;HTU21D;52176;44.858;38.372;2022-10-12T09:24:09;27.61;39.43
64918;HTU21D;52176;44.858;38.372;2022-10-12T09:26:38;27.95;38.82
64918;HTU21D;52176;44.858;38.372;2022-10-12T09:34:08;27.20;38.95
64918;HTU21D;52176;44.858;38.372;2022-10-12T09:36:35;26.37;40.10
64918;HTU21D;52176;44.858;38.372;2022-10-12T09:39:03;25.77;41.24
64918;HTU21D;52176;44.858;38.372;2022-10-12T09:41:34;25.91;41.08
64918;HTU21D;52176;44.858;38.372;2022-10-12T09:44:00;26.27;40.28
64918;HTU21D;52176;44.858;38.372;2022-10-12T09:46:40;26.68;39.80
64918;HTU21D;52176;44.858;38.372;2022-10-12T09:49:07;27.12;39.43
64918;HTU21D;52176;44.858;38.372;2022-10-12T09:51:33;27.51;38.80
64918;HTU21D;52176;44.858;38.372;2022-10-12T09:54:00;27.83;38.20
64918;HTU21D;52176;44.858;38.372;2022-10-12T09:59:03;28.20;36.94
64918;HTU21D;52176;44.858;38.372;2022-10-12T10:01:31;28.29;36.68
64918;HTU21D;52176;44.858;38.372;2022-10-12T10:04:08;28.42;36.36
64918;HTU21D;52176;44.858;38.372;2022-10-12T10:06:35;28.61;36.40
64918;HTU21D;52176;44.858;38.372;2022-10-12T10:09:01;28.73;35.28
64918;HTU21D;52176;44.858;38.372;2022-10-12T10:11:28;28.79;34.76
64918;HTU21D;52176;44.858;38.372;2022-10-12T10:13:56;28.92;34.96
64918;HTU21D;52176;44.858;38.372;2022-10-12T10:16:23;28.84;35.06
64918;HTU21D;52176;44.858;38.372;2022-10-12T10:21:26;28.26;35.78
64918;HTU21D;52176;44.858;38.372;2022-10-12T10:23:57;28.43;35.95
64918;HTU21D;52176;44.858;38.372;2022-10-12T10:26:23;28.60;35.68
64918;HTU21D;52176;44.858;38.372;2022-10-12T10:28:53;28.72;35.40
64918;HTU21D;52176;44.858;38.372;2022-10-12T10:31:21;28.71;35.04
64918;HTU21D;52176;44.858;38.372;2022-10-12T10:36:27;28.35;34.95
64918;HTU21D;52176;44.858;38.372;2022-10-12T10:39:00;28.15;34.47
64918;HTU21D;52176;44.858;38.372;2022-10-12T10:41:32;27.70;35.15
64918;HTU21D;52176;44.858;38.372;2022-10-12T10:44:00;27.63;35.20
64918;HTU21D;52176;44.858;38.372;2022-10-12T10:46:27;27.58;35.48
64918;HTU21D;52176;44.858;38.372;2022-10-12T10:48:55;27.65;35.33
64918;HTU21D;52176;44.858;38.372;2022-10-12T10:54:15;27.52;35.31
64918;HTU21D;52176;44.858;38.372;2022-10-12T10:56:41;27.54;35.56
64918;HTU21D;52176;44.858;38.372;2022-10-12T10:59:18;27.58;35.37
64918;HTU21D;52176;44.858;38.372;2022-10-12T11:01:49;27.66;35.22
64918;HTU21D;52176;44.858;38.372;2022-10-12T11:04:21;27.73;34.73
64918;HTU21D;52176;44.858;38.372;2022-10-12T11:06:56;27.64;34.66
64918;HTU21D;52176;44.858;38.372;2022-10-12T11:09:23;27.51;35.07
64918;HTU21D;52176;44.858;38.372;2022-10-12T11:11:59;27.49;35.32
64918;HTU21D;52176;44.858;38.372;2022-10-12T11:14:32;27.53;35.69
64918;HTU21D;52176;44.858;38.372;2022-10-12T11:17:03;27.47;35.52
64918;HTU21D;52176;44.858;38.372;2022-10-12T11:19:34;27.36;35.66
64918;HTU21D;52176;44.858;38.372;2022-10-12T11:22:02;27.35;35.79
64918;HTU21D;52176;44.858;38.372;2022-10-12T11:26:56;27.35;36.14
64918;HTU21D;52176;44.858;38.372;2022-10-12T11:29:25;27.22;36.09
64918;HTU21D;52176;44.858;38.372;2022-10-12T11:34:44;26.85;36.56
64918;HTU21D;52176;44.858;38.372;2022-10-12T11:37:15;26.57;36.47
64918;HTU21D;52176;44.858;38.372;2022-10-12T11:39:43;26.28;36.50
64918;HTU21D;52176;44.858;38.372;2022-10-12T11:42:11;26.05;36.77
64918;HTU21D;52176;44.858;38.372;2022-10-12T11:44:41;25.76;36.79
64918;HTU21D;52176;44.858;38.372;2022-10-12T11:47:11;25.36;37.17
64918;HTU21D;52176;44.858;38.372;2022-10-12T11:52:10;24.33;38.87
64918;HTU21D;52176;44.858;38.372;2022-10-12T11:57:03;23.52;40.46
64918;HTU21D;52176;44.858;38.372;2022-10-12T11:59:49;23.38;40.71
64918;HTU21D;52176;44.858;38.372;2022-10-12T12:02:37;23.17;41.27
64918;HTU21D;52176;44.858;38.372;2022-10-12T12:05:03;23.08;41.43
64918;HTU21D;52176;44.858;38.372;2022-10-12T12:15:37;22.69;41.99
64918;HTU21D;52176;44.858;38.372;2022-10-12T12:18:08;22.58;42.33
64918;HTU21D;52176;44.858;38.372;2022-10-12T12:26:05;22.43;42.39
64918;HTU21D;52176;44.858;38.372;2022-10-12T12:28:31;22.37;41.98
64918;HTU21D;52176;44.858;38.372;2022-10-12T12:30:59;22.25;41.83
64918;HTU21D;52176;44.858;38.372;2022-10-12T12:33:26;22.18;41.77
64918;HTU21D;52176;44.858;38.372;2022-10-12T12:35:59;22.12;41.84
64918;HTU21D;52176;44.858;38.372;2022-10-12T12:38:31;22.06;41.97
64918;HTU21D;52176;44.858;38.372;2022-10-12T12:40:59;21.99;42.13
64918;HTU21D;52176;44.858;38.372;2022-10-12T12:45:57;21.74;42.93
64918;HTU21D;52176;44.858;38.372;2022-10-12T13:07:10;20.47;44.72
64918;HTU21D;52176;44.858;38.372;2022-10-12T13:12:20;20.18;45.24
64918;HTU21D;52176;44.858;38.372;2022-10-12T13:17:25;19.84;45.75
64918;HTU21D;52176;44.858;38.372;2022-10-12T13:19:55;19.69;46.02
64918;HTU21D;52176;44.858;38.372;2022-10-12T13:22:25;19.55;46.24
64918;HTU21D;52176;44.858;38.372;2022-10-12T13:24:53;19.39;46.27
64918;HTU21D;52176;44.858;38.372;2022-10-12T13:27:42;19.24;46.71
64918;HTU21D;52176;44.858;38.372;2022-10-12T13:35:15;18.76;48.02
64918;HTU21D;52176;44.858;38.372;2022-10-12T13:37:43;18.57;48.39
64918;HTU21D;52176;44.858;38.372;2022-10-12T13:40:29;18.43;48.63
64918;HTU21D;52176;44.858;38.372;2022-10-12T13:42:55;18.25;48.86
64918;HTU21D;52176;44.858;38.372;2022-10-12T13:45:21;18.14;49.19
64918;HTU21D;52176;44.858;38.372;2022-10-12T13:47:46;18.02;49.63
64918;HTU21D;52176;44.858;38.372;2022-10-12T13:50:19;17.87;49.94
64918;HTU21D;52176;44.858;38.372;2022-10-12T13:52:52;17.69;50.24
64918;HTU21D;52176;44.858;38.372;2022-10-12T13:55:20;17.55;50.48
64918;HTU21D;52176;44.858;38.372;2022-10-12T13:57:48;17.39;50.67
64918;HTU21D;52176;44.858;38.372;2022-10-12T14:02:41;17.11;51.18
64918;HTU21D;52176;44.858;38.372;2022-10-12T14:05:26;16.98;51.45
64918;HTU21D;52176;44.858;38.372;2022-10-12T14:07:52;16.82;51.66
64918;HTU21D;52176;44.858;38.372;2022-10-12T14:10:23;16.70;51.95
64918;HTU21D;52176;44.858;38.372;2022-10-12T14:12:50;16.57;52.33
64918;HTU21D;52176;44.858;38.372;2022-10-12T14:15:16;16.44;52.64
64918;HTU21D;52176;44.858;38.372;2022-10-12T14:17:43;16.30;53.01
64918;HTU21D;52176;44.858;38.372;2022-10-12T14:20:29;16.17;53.43
64918;HTU21D;52176;44.858;38.372;2022-10-12T14:22:55;16.02;53.79
64918;HTU21D;52176;44.858;38.372;2022-10-12T14:25:26;15.87;54.18
64918;HTU21D;52176;44.858;38.372;2022-10-12T14:27:59;15.75;54.51
64918;HTU21D;52176;44.858;38.372;2022-10-12T14:30:33;15.63;54.79
64918;HTU21D;52176;44.858;38.372;2022-10-12T14:35:41;15.36;54.97
64918;HTU21D;52176;44.858;38.372;2022-10-12T14:38:34;15.19;55.47
64918;HTU21D;52176;44.858;38.372;2022-10-12T14:44:01;14.91;56.51
64918;HTU21D;52176;44.858;38.372;2022-10-12T14:46:27;14.75;56.90
64918;HTU21D;52176;44.858;38.372;2022-10-12T14:48:53;14.66;57.44
64918;HTU21D;52176;44.858;38.372;2022-10-12T14:51:19;14.52;57.84
64918;HTU21D;52176;44.858;38.372;2022-10-12T14:53:45;14.40;58.27
64918;HTU21D;52176;44.858;38.372;2022-10-12T14:56:11;14.30;58.67
64918;HTU21D;52176;44.858;38.372;2022-10-12T14:58:37;14.19;58.95
64918;HTU21D;52176;44.858;38.372;2022-10-12T15:01:03;14.09;59.21
64918;HTU21D;52176;44.858;38.372;2022-10-12T15:03:29;13.98;59.48
64918;HTU21D;52176;44.858;38.372;2022-10-12T15:05:54;13.89;59.68
64918;HTU21D;52176;44.858;38.372;2022-10-12T15:08:20;13.80;59.90
64918;HTU21D;52176;44.858;38.372;2022-10-12T15:10:48;13.71;60.03
64918;HTU21D;52176;44.858;38.372;2022-10-12T15:13:14;13.64;60.30
64918;HTU21D;52176;44.858;38.372;2022-10-12T15:15:41;13.54;60.54
64918;HTU21D;52176;44.858;38.372;2022-10-12T15:18:08;13.46;60.84
64918;HTU21D;52176;44.858;38.372;2022-10-12T15:20:35;13.37;61.05
64918;HTU21D;52176;44.858;38.372;2022-10-12T15:23:02;13.30;61.29
64918;HTU21D;52176;44.858;38.372;2022-10-12T15:28:01;13.16;61.79
64918;HTU21D;52176;44.858;38.372;2022-10-12T15:30:27;13.05;62.23
64918;HTU21D;52176;44.858;38.372;2022-10-12T15:32:53;12.95;62.49
64918;HTU21D;52176;44.858;38.372;2022-10-12T15:35:21;12.87;62.81
64918;HTU21D;52176;44.858;38.372;2022-10-12T15:37:48;12.76;63.01
64918;HTU21D;52176;44.858;38.372;2022-10-12T15:40:17;12.71;63.34
64918;HTU21D;52176;44.858;38.372;2022-10-12T15:42:44;12.62;63.43
64918;HTU21D;52176;44.858;38.372;2022-10-12T15:45:18;12.57;63.82
64918;HTU21D;52176;44.858;38.372;2022-10-12T15:47:44;12.51;63.80
64918;HTU21D;52176;44.858;38.372;2022-10-12T15:50:11;12.44;64.01
64918;HTU21D;52176;44.858;38.372;2022-10-12T15:52:37;12.38;64.28
64918;HTU21D;52176;44.858;38.372;2022-10-12T15:55:04;12.32;64.50
64918;HTU21D;52176;44.858;38.372;2022-10-12T15:57:30;12.23;64.74
64918;HTU21D;52176;44.858;38.372;2022-10-12T15:59:56;12.18;64.95
64918;HTU21D;52176;44.858;38.372;2022-10-12T16:02:22;12.11;65.18
64918;HTU21D;52176;44.858;38.372;2022-10-12T16:04:48;12.07;65.43
64918;HTU21D;52176;44.858;38.372;2022-10-12T16:07:14;12.04;65.57
64918;HTU21D;52176;44.858;38.372;2022-10-12T16:09:39;11.99;65.81
64918;HTU21D;52176;44.858;38.372;2022-10-12T16:12:05;11.94;65.95
64918;HTU21D;52176;44.858;38.372;2022-10-12T16:14:31;11.89;66.12
64918;HTU21D;52176;44.858;38.372;2022-10-12T16:16:57;11.85;66.36
64918;HTU21D;52176;44.858;38.372;2022-10-12T16:19:24;11.79;66.54
64918;HTU21D;52176;44.858;38.372;2022-10-12T16:21:51;11.72;66.81
64918;HTU21D;52176;44.858;38.372;2022-10-12T16:24:16;11.66;67.07
64918;HTU21D;52176;44.858;38.372;2022-10-12T16:26:42;11.58;67.42
64918;HTU21D;52176;44.858;38.372;2022-10-12T16:29:08;11.53;67.62
64918;HTU21D;52176;44.858;38.372;2022-10-12T16:31:34;11.46;67.75
64918;HTU21D;52176;44.858;38.372;2022-10-12T16:33:59;11.42;67.94
64918;HTU21D;52176;44.858;38.372;2022-10-12T16:36:25;11.37;68.10
64918;HTU21D;52176;44.858;38.372;2022-10-12T16:38:51;11.28;68.24
64918;HTU21D;52176;44.858;38.372;2022-10-12T16:41:17;11.24;68.44
64918;HTU21D;52176;44.858;38.372;2022-10-12T16:43:43;11.16;68.63
64918;HTU21D;52176;44.858;38.372;2022-10-12T16:46:09;11.10;68.81
64918;HTU21D;52176;44.858;38.372;2022-10-12T16:48:35;11.02;69.00
64918;HTU21D;52176;44.858;38.372;2022-10-12T16:51:05;10.98;69.20
64918;HTU21D;52176;44.858;38.372;2022-10-12T16:53:30;10.92;69.45
64918;HTU21D;52176;44.858;38.372;2022-10-12T16:55:56;10.85;69.60
64918;HTU21D;52176;44.858;38.372;2022-10-12T16:58:22;10.79;69.82
64918;HTU21D;52176;44.858;38.372;2022-10-12T17:00:48;10.70;70.02
64918;HTU21D;52176;44.858;38.372;2022-10-12T17:03:15;10.64;70.23
64918;HTU21D;52176;44.858;38.372;2022-10-12T17:05:41;10.59;70.42
64918;HTU21D;52176;44.858;38.372;2022-10-12T17:08:07;10.54;70.52
64918;HTU21D;52176;44.858;38.372;2022-10-12T17:10:38;10.49;70.67
64918;HTU21D;52176;44.858;38.372;2022-10-12T17:13:04;10.43;70.81
64918;HTU21D;52176;44.858;38.372;2022-10-12T17:15:33;10.39;70.92
64918;HTU21D;52176;44.858;38.372;2022-10-12T17:17:59;10.33;71.08